createdAt,value
2018-10-03T00:00:22.742Z,17.2
2018-10-03T00:01:03.183Z,17.15
2018-10-03T00:01:43.693Z,17.14
2018-10-03T00:02:24.031Z,17.06
2018-10-03T00:03:04.552Z,17.12
2018-10-03T00:03:44.863Z,17.17
2018-10-03T00:04:25.299Z,17.07
2018-10-03T00:05:05.726Z,17.14
2018-10-03T00:05:46.182Z,17.09
2018-10-03T00:06:26.531Z,17.12
2018-10-03T00:07:06.981Z,17.14
2018-10-03T00:07:47.416Z,17.15
2018-10-03T00:08:27.844Z,17.12
2018-10-03T00:09:08.209Z,17.15
2018-10-03T00:09:48.767Z,17.1
2018-10-03T00:10:29.194Z,17.12
2018-10-03T00:11:09.545Z,17.18
2018-10-03T00:11:49.964Z,17.15
2018-10-03T00:12:30.435Z,17.14
2018-10-03T00:13:10.823Z,17.12
2018-10-03T00:13:51.313Z,17.17
2018-10-03T00:14:31.631Z,17.14
2018-10-03T00:15:12.867Z,17.17
2018-10-03T00:15:52.695Z,17.17
2018-10-03T00:16:33.171Z,17.12
2018-10-03T00:17:13.623Z,17.15
2018-10-03T00:17:54.086Z,17.14
2018-10-03T00:18:34.633Z,17.06
2018-10-03T00:19:15.000Z,17.1
2018-10-03T00:19:55.798Z,17.06
2018-10-03T00:20:36.155Z,17.06
2018-10-03T00:21:16.569Z,17.03
2018-10-03T00:21:57.030Z,17.07
2018-10-03T00:22:37.585Z,17.1
2018-10-03T00:23:17.980Z,17.12
2018-10-03T00:23:58.463Z,17.09
2018-10-03T00:24:38.821Z,17.12
2018-10-03T00:25:19.239Z,17.07
2018-10-03T00:25:59.668Z,17.15
2018-10-03T00:26:40.109Z,17.17
2018-10-03T00:27:20.523Z,17.18
2018-10-03T00:28:00.946Z,17.22
2018-10-03T00:28:41.403Z,17.25
2018-10-03T00:29:21.865Z,17.3
2018-10-03T00:30:02.251Z,17.3
2018-10-03T00:30:42.872Z,17.22
2018-10-03T00:31:23.751Z,17.17
2018-10-03T00:32:04.484Z,17.18
2018-10-03T00:32:44.677Z,17.17
2018-10-03T00:33:25.277Z,17.18
2018-10-03T00:34:05.630Z,17.17
2018-10-03T00:34:46.049Z,17.15
2018-10-03T00:35:26.494Z,17.14
2018-10-03T00:36:06.958Z,17.14
2018-10-03T00:36:47.309Z,17.18
2018-10-03T00:37:28.077Z,17.14
2018-10-03T00:38:08.492Z,17.12
2018-10-03T00:38:48.875Z,17.12
2018-10-03T00:39:29.304Z,17.18
2018-10-03T00:40:09.744Z,17.27
2018-10-03T00:40:50.335Z,17.28
2018-10-03T00:41:30.907Z,17.15
2018-10-03T00:42:11.306Z,17.15
2018-10-03T00:42:51.707Z,17.15
2018-10-03T00:43:32.194Z,17.17
2018-10-03T00:44:12.538Z,17.15
2018-10-03T00:44:52.916Z,17.07
2018-10-03T00:45:33.363Z,17.12
2018-10-03T00:46:13.810Z,17.09
2018-10-03T00:46:54.229Z,16.96
2018-10-03T00:47:34.566Z,17
2018-10-03T00:48:14.970Z,16.99
2018-10-03T00:48:55.397Z,17
2018-10-03T00:49:36.713Z,17.03
2018-10-03T00:50:17.078Z,17.03
2018-10-03T00:50:57.473Z,17.07
2018-10-03T00:51:37.913Z,17.09
2018-10-03T00:52:18.358Z,17.12
2018-10-03T00:52:58.823Z,17.18
2018-10-03T00:53:39.180Z,17.1
2018-10-03T00:54:19.577Z,17.15
2018-10-03T00:55:00.070Z,17.1
2018-10-03T00:55:40.431Z,17.1
2018-10-03T00:56:20.819Z,17.14
2018-10-03T00:57:01.217Z,17.14
2018-10-03T00:57:41.726Z,17.17
2018-10-03T00:58:22.114Z,17.12
2018-10-03T00:59:02.493Z,17.15
2018-10-03T00:59:42.950Z,17.2
2018-10-03T01:00:23.390Z,17.3
2018-10-03T01:02:17.860Z,17.25
2018-10-03T01:02:56.832Z,17.27
2018-10-03T01:03:36.979Z,17.17
2018-10-03T01:04:17.390Z,17.17
2018-10-03T01:04:57.781Z,17.2
2018-10-03T01:05:38.188Z,17.25
2018-10-03T01:06:18.596Z,17.28
2018-10-03T01:06:59.065Z,17.24
2018-10-03T01:07:39.360Z,17.32
2018-10-03T01:08:19.764Z,17.22
2018-10-03T01:09:00.168Z,17.2
2018-10-03T01:09:40.601Z,17.27
2018-10-03T01:10:20.966Z,17.17
2018-10-03T01:11:01.403Z,17.12
2018-10-03T01:11:41.807Z,17.12
2018-10-03T01:12:22.184Z,17.25
2018-10-03T01:13:02.606Z,17.17
2018-10-03T01:13:43.069Z,17.09
2018-10-03T01:14:23.514Z,17.12
2018-10-03T01:15:04.093Z,17.18
2018-10-03T01:15:44.454Z,17.1
2018-10-03T01:16:24.846Z,17.15
2018-10-03T01:17:05.240Z,17.1
2018-10-03T01:17:45.637Z,17.22
2018-10-03T01:18:26.116Z,17.14
2018-10-03T01:19:06.408Z,17.14
2018-10-03T01:19:46.813Z,17.15
2018-10-03T01:20:27.503Z,17.1
2018-10-03T01:21:07.929Z,17.1
2018-10-03T01:21:48.258Z,17.18
2018-10-03T01:22:28.631Z,17.17
2018-10-03T01:23:09.067Z,17.09
2018-10-03T01:23:49.569Z,17.12
2018-10-03T01:24:30.068Z,17.09
2018-10-03T01:25:10.505Z,17.1
2018-10-03T01:25:50.951Z,17.07
2018-10-03T01:26:31.411Z,17.12
2018-10-03T01:27:11.803Z,17.18
2018-10-03T01:27:52.200Z,17.2
2018-10-03T01:28:32.613Z,17.1
2018-10-03T01:29:13.534Z,17.12
2018-10-03T01:29:53.974Z,17.14
2018-10-03T01:30:34.364Z,17.09
2018-10-03T01:31:14.782Z,17.18
2018-10-03T01:31:55.162Z,17.15
2018-10-03T01:32:35.669Z,17.18
2018-10-03T01:33:15.959Z,17.17
2018-10-03T01:33:56.375Z,17.18
2018-10-03T01:34:36.805Z,17.09
2018-10-03T01:35:17.232Z,17.09
2018-10-03T01:35:57.644Z,17.07
2018-10-03T01:36:37.965Z,17.03
2018-10-03T01:37:18.518Z,16.92
2018-10-03T01:37:59.223Z,16.96
2018-10-03T01:38:39.342Z,17
2018-10-03T01:39:19.830Z,17
2018-10-03T01:40:00.581Z,16.98
2018-10-03T01:40:41.054Z,16.85
2018-10-03T01:41:21.487Z,16.82
2018-10-03T01:42:01.847Z,16.85
2018-10-03T01:42:42.418Z,16.87
2018-10-03T01:43:22.723Z,16.92
2018-10-03T01:44:03.138Z,16.91
2018-10-03T01:44:43.537Z,16.92
2018-10-03T01:45:24.038Z,16.98
2018-10-03T01:46:04.358Z,17
2018-10-03T01:46:45.173Z,17
2018-10-03T01:47:25.651Z,16.91
2018-10-03T01:48:06.181Z,16.98
2018-10-03T01:48:46.572Z,16.92
2018-10-03T01:49:26.896Z,17.02
2018-10-03T01:50:07.321Z,16.99
2018-10-03T01:50:47.730Z,17
2018-10-03T01:51:28.214Z,16.9
2018-10-03T01:52:09.833Z,16.95
2018-10-03T01:52:50.288Z,16.95
2018-10-03T01:53:30.694Z,17.03
2018-10-03T01:54:11.157Z,17.05
2018-10-03T01:54:51.994Z,16.96
2018-10-03T01:55:32.080Z,16.98
2018-10-03T01:56:13.402Z,17.05
2018-10-03T01:56:53.855Z,16.92
2018-10-03T01:57:34.834Z,17
2018-10-03T01:58:15.977Z,17
2018-10-03T01:58:58.266Z,17.06
2018-10-03T01:59:38.696Z,16.98
2018-10-03T02:00:19.077Z,17.09
2018-10-03T02:00:59.535Z,17.12
2018-10-03T02:01:39.968Z,17.07
2018-10-03T02:02:20.436Z,17.14
2018-10-03T02:03:00.729Z,17.12
2018-10-03T02:03:41.235Z,17.1
2018-10-03T02:04:21.703Z,17.03
2018-10-03T02:05:02.070Z,17.03
2018-10-03T02:05:42.533Z,17.07
2018-10-03T02:06:22.892Z,16.96
2018-10-03T02:07:03.245Z,16.99
2018-10-03T02:07:43.641Z,17.02
2018-10-03T02:08:24.029Z,16.92
2018-10-03T02:09:04.432Z,16.92
2018-10-03T02:09:44.870Z,16.92
2018-10-03T02:10:25.280Z,16.96
2018-10-03T02:11:05.766Z,16.96
2018-10-03T02:11:46.173Z,16.98
2018-10-03T02:12:26.516Z,16.92
2018-10-03T02:13:06.997Z,16.91
2018-10-03T02:13:47.467Z,16.92
2018-10-03T02:14:27.925Z,16.87
2018-10-03T02:15:08.226Z,16.9
2018-10-03T02:15:48.633Z,16.8
2018-10-03T02:16:29.164Z,16.77
2018-10-03T02:17:09.526Z,16.81
2018-10-03T02:17:49.999Z,16.77
2018-10-03T02:18:30.460Z,16.75
2018-10-03T02:19:10.820Z,16.75
2018-10-03T02:19:51.247Z,16.77
2018-10-03T02:21:44.643Z,16.78
2018-10-03T02:23:48.564Z,16.73
2018-10-03T02:24:29.071Z,16.82
2018-10-03T02:25:09.487Z,16.73
2018-10-03T02:25:49.957Z,16.66
2018-10-03T02:26:30.301Z,16.65
2018-10-03T02:27:10.692Z,16.65
2018-10-03T02:27:51.119Z,16.59
2018-10-03T02:28:31.590Z,16.65
2018-10-03T02:29:11.993Z,16.57
2018-10-03T02:29:52.362Z,16.62
2018-10-03T02:30:32.761Z,16.65
2018-10-03T02:31:13.176Z,16.6
2018-10-03T02:31:53.535Z,16.62
2018-10-03T02:32:33.980Z,16.55
2018-10-03T02:33:14.323Z,16.63
2018-10-03T02:33:54.730Z,16.57
2018-10-03T02:34:35.107Z,16.6
2018-10-03T02:35:15.517Z,16.59
2018-10-03T02:35:55.941Z,16.63
2018-10-03T02:36:36.347Z,16.51
2018-10-03T02:37:16.709Z,16.6
2018-10-03T02:37:57.127Z,16.66
2018-10-03T02:38:37.592Z,16.52
2018-10-03T02:39:17.895Z,16.54
2018-10-03T02:39:58.285Z,16.59
2018-10-03T02:40:39.549Z,16.62
2018-10-03T02:41:20.023Z,16.62
2018-10-03T02:42:00.411Z,16.69
2018-10-03T02:42:40.875Z,16.63
2018-10-03T02:43:21.339Z,16.67
2018-10-03T02:44:01.737Z,16.69
2018-10-03T02:44:42.150Z,16.69
2018-10-03T02:46:39.987Z,16.69
2018-10-03T02:47:20.693Z,16.72
2018-10-03T02:48:01.110Z,16.72
2018-10-03T02:48:41.526Z,16.75
2018-10-03T02:49:21.921Z,16.73
2018-10-03T02:50:02.837Z,16.73
2018-10-03T02:50:43.296Z,16.69
2018-10-03T02:51:23.628Z,16.7
2018-10-03T02:52:04.172Z,16.72
2018-10-03T02:52:44.798Z,16.73
2018-10-03T02:53:25.278Z,16.75
2018-10-03T02:54:05.759Z,16.7
2018-10-03T02:54:46.108Z,16.77
2018-10-03T02:55:26.807Z,16.63
2018-10-03T02:56:06.917Z,16.63
2018-10-03T02:56:47.271Z,16.62
2018-10-03T02:57:27.723Z,16.69
2018-10-03T02:58:08.085Z,16.65
2018-10-03T02:58:48.627Z,16.6
2018-10-03T02:59:28.967Z,16.57
2018-10-03T03:00:09.434Z,16.57
2018-10-03T03:00:49.893Z,16.57
2018-10-03T03:01:30.477Z,16.63
2018-10-03T03:02:10.818Z,16.66
2018-10-03T03:02:51.262Z,16.59
2018-10-03T03:03:31.660Z,16.62
2018-10-03T03:04:12.100Z,16.65
2018-10-03T03:04:52.491Z,16.65
2018-10-03T03:05:32.867Z,16.6
2018-10-03T03:06:13.341Z,16.55
2018-10-03T03:06:53.754Z,16.59
2018-10-03T03:07:34.143Z,16.7
2018-10-03T03:08:14.571Z,16.66
2018-10-03T03:08:55.024Z,16.63
2018-10-03T03:09:35.381Z,16.57
2018-10-03T03:10:16.224Z,16.57
2018-10-03T03:10:56.567Z,16.57
2018-10-03T03:11:36.967Z,16.6
2018-10-03T03:12:17.745Z,16.65
2018-10-03T03:12:58.337Z,16.62
2018-10-03T03:13:38.798Z,16.52
2018-10-03T03:14:19.252Z,16.51
2018-10-03T03:14:59.611Z,16.54
2018-10-03T03:15:40.284Z,16.59
2018-10-03T03:16:20.553Z,16.59
2018-10-03T03:17:00.849Z,16.66
2018-10-03T03:17:41.304Z,16.57
2018-10-03T03:18:21.675Z,16.65
2018-10-03T03:19:02.111Z,16.62
2018-10-03T03:19:42.473Z,16.65
2018-10-03T03:20:22.894Z,16.59
2018-10-03T03:21:03.351Z,16.57
2018-10-03T03:21:43.785Z,16.57
2018-10-03T03:22:24.259Z,16.62
2018-10-03T03:23:04.754Z,16.62
2018-10-03T03:23:45.212Z,16.6
2018-10-03T03:24:25.537Z,16.59
2018-10-03T03:25:05.916Z,16.66
2018-10-03T03:25:46.373Z,16.6
2018-10-03T03:26:26.811Z,16.67
2018-10-03T03:27:07.148Z,16.59
2018-10-03T03:27:47.682Z,16.62
2018-10-03T03:28:28.137Z,16.54
2018-10-03T03:29:08.613Z,16.59
2018-10-03T03:29:48.954Z,16.51
2018-10-03T03:30:29.392Z,16.54
2018-10-03T03:31:09.711Z,16.65
2018-10-03T03:31:50.190Z,16.67
2018-10-03T03:32:30.563Z,16.67
2018-10-03T03:33:10.968Z,16.69
2018-10-03T03:33:51.311Z,16.65
2018-10-03T03:34:31.771Z,16.6
2018-10-03T03:35:12.124Z,16.67
2018-10-03T03:35:52.681Z,16.7
2018-10-03T03:36:33.041Z,16.59
2018-10-03T03:37:13.469Z,16.62
2018-10-03T03:37:54.017Z,16.69
2018-10-03T03:38:34.376Z,16.63
2018-10-03T03:39:14.811Z,16.54
2018-10-03T03:39:55.275Z,16.55
2018-10-03T03:40:35.541Z,16.47
2018-10-03T03:41:16.345Z,16.48
2018-10-03T03:41:56.649Z,16.48
2018-10-03T03:42:37.093Z,16.37
2018-10-03T03:43:17.466Z,16.42
2018-10-03T03:43:57.872Z,16.52
2018-10-03T03:44:38.272Z,16.48
2018-10-03T03:45:18.699Z,16.47
2018-10-03T03:45:59.065Z,16.51
2018-10-03T03:46:39.507Z,16.42
2018-10-03T03:47:19.937Z,16.45
2018-10-03T03:48:00.256Z,16.3
2018-10-03T03:48:40.753Z,16.4
2018-10-03T03:49:21.153Z,16.3
2018-10-03T03:50:01.679Z,16.42
2018-10-03T03:50:42.095Z,16.32
2018-10-03T03:51:23.326Z,16.26
2018-10-03T03:52:03.748Z,16.32
2018-10-03T03:52:44.186Z,16.29
2018-10-03T03:53:24.629Z,16.27
2018-10-03T03:54:05.049Z,16.3
2018-10-03T03:54:45.528Z,16.29
2018-10-03T03:55:25.942Z,16.27
2018-10-03T03:56:06.505Z,16.3
2018-10-03T03:56:46.738Z,16.29
2018-10-03T03:57:27.137Z,16.27
2018-10-03T03:58:07.561Z,16.18
2018-10-03T03:58:47.904Z,16.25
2018-10-03T04:01:47.289Z,16.14
2018-10-03T04:02:27.653Z,16.07
2018-10-03T04:03:08.005Z,16.13
2018-10-03T04:03:48.415Z,16.1
2018-10-03T04:04:28.848Z,16.1
2018-10-03T04:05:09.246Z,16.03
2018-10-03T04:05:49.606Z,15.89
2018-10-03T04:06:29.992Z,15.96
2018-10-03T04:07:10.381Z,15.89
2018-10-03T04:07:50.770Z,15.93
2018-10-03T04:08:31.205Z,15.89
2018-10-03T04:09:12.007Z,15.95
2018-10-03T04:09:52.220Z,15.84
2018-10-03T04:10:32.640Z,15.89
2018-10-03T04:11:13.510Z,15.78
2018-10-03T04:11:53.921Z,15.8
2018-10-03T04:12:34.395Z,15.81
2018-10-03T04:13:15.000Z,15.71
2018-10-03T04:13:55.277Z,15.68
2018-10-03T04:14:35.769Z,15.71
2018-10-03T04:15:16.128Z,15.68
2018-10-03T04:15:56.528Z,15.76
2018-10-03T04:16:37.078Z,15.85
2018-10-03T04:17:17.510Z,15.81
2018-10-03T04:17:57.882Z,15.73
2018-10-03T04:18:38.698Z,15.8
2018-10-03T04:19:19.098Z,15.86
2018-10-03T04:19:59.476Z,15.85
2018-10-03T04:20:40.117Z,15.84
2018-10-03T04:21:20.454Z,15.88
2018-10-03T04:22:00.942Z,15.76
2018-10-03T04:22:41.260Z,15.8
2018-10-03T04:23:21.659Z,15.85
2018-10-03T04:24:02.121Z,15.78
2018-10-03T04:24:42.514Z,15.8
2018-10-03T04:25:22.935Z,15.84
2018-10-03T04:26:03.318Z,15.81
2018-10-03T04:26:43.746Z,15.84
2018-10-03T04:27:24.097Z,15.8
2018-10-03T05:08:51.012Z,14.78
2018-10-03T05:09:36.622Z,14.79
2018-10-03T05:10:17.028Z,14.83
2018-10-03T05:10:57.482Z,14.72
2018-10-03T05:11:37.837Z,14.74
2018-10-03T05:12:18.329Z,14.83
2018-10-03T05:12:58.694Z,14.85
2018-10-03T05:13:39.077Z,14.85
2018-10-03T05:14:19.528Z,14.83
2018-10-03T05:14:59.967Z,14.85
2018-10-03T05:15:40.380Z,14.72
2018-10-03T05:16:20.813Z,14.74
2018-10-03T05:17:01.210Z,14.72
2018-10-03T05:17:41.726Z,14.83
2018-10-03T05:18:22.505Z,14.78
2018-10-03T05:19:02.818Z,14.86
2018-10-03T05:19:43.331Z,14.91
2018-10-03T05:20:23.726Z,14.9
2018-10-03T05:21:04.212Z,14.93
2018-10-03T05:21:44.807Z,14.9
2018-10-03T05:22:25.463Z,14.91
2018-10-03T05:23:05.846Z,14.98
2018-10-03T05:23:46.262Z,15.04
2018-10-03T05:24:26.677Z,15.04
2018-10-03T05:25:07.075Z,14.97
2018-10-03T05:25:47.474Z,15.03
2018-10-03T05:26:27.885Z,15.05
2018-10-03T05:27:08.411Z,15.12
2018-10-03T05:27:48.845Z,15.09
2018-10-03T05:28:29.215Z,15.13
2018-10-03T05:29:09.566Z,15.2
2018-10-03T05:29:49.981Z,15.15
2018-10-03T05:30:30.390Z,15.2
2018-10-03T05:31:10.854Z,15.2
2018-10-03T05:31:51.219Z,15.23
2018-10-03T05:32:31.688Z,15.23
2018-10-03T05:33:12.101Z,15.25
2018-10-03T05:33:52.426Z,15.19
2018-10-03T05:34:32.843Z,15.23
2018-10-03T05:35:13.247Z,15.2
2018-10-03T05:35:53.722Z,15.23
2018-10-03T05:36:34.192Z,15.27
2018-10-03T05:37:14.578Z,15.19
2018-10-03T05:37:54.981Z,15.18
2018-10-03T05:38:35.325Z,15.33
2018-10-03T05:39:15.846Z,15.33
2018-10-03T05:39:56.133Z,15.31
2018-10-03T05:40:36.537Z,15.34
2018-10-03T05:41:16.964Z,15.31
2018-10-03T05:41:57.309Z,15.31
2018-10-03T05:42:37.744Z,15.31
2018-10-03T05:43:18.146Z,15.31
2018-10-03T05:43:58.549Z,15.33
2018-10-03T05:44:38.975Z,15.31
2018-10-03T05:45:19.394Z,15.35
2018-10-03T05:45:59.700Z,15.31
2018-10-03T05:46:40.112Z,15.38
2018-10-03T05:47:20.561Z,15.46
2018-10-03T05:48:00.929Z,15.4
2018-10-03T05:48:41.407Z,15.37
2018-10-03T05:49:21.743Z,15.52
2018-10-03T05:50:02.174Z,15.46
2018-10-03T05:50:42.536Z,15.46
2018-10-03T05:51:22.924Z,15.56
2018-10-03T05:52:03.395Z,15.59
2018-10-03T05:52:43.785Z,15.53
2018-10-03T05:53:24.310Z,15.55
2018-10-03T05:54:04.903Z,15.59
2018-10-03T05:54:45.360Z,15.51
2018-10-03T05:55:25.727Z,15.51
2018-10-03T05:56:06.120Z,15.51
2018-10-03T05:56:46.518Z,15.62
2018-10-03T05:57:26.956Z,15.58
2018-10-03T05:58:07.371Z,15.66
2018-10-03T05:58:47.739Z,15.62
2018-10-03T05:59:28.135Z,15.59
2018-10-03T06:00:08.667Z,15.51
2018-10-03T06:00:49.133Z,15.43
2018-10-03T06:01:29.484Z,15.53
2018-10-03T06:02:09.904Z,15.53
2018-10-03T06:02:50.611Z,15.51
2018-10-03T06:03:30.747Z,15.52
2018-10-03T06:04:11.259Z,15.53
2018-10-03T06:04:53.171Z,15.53
2018-10-03T06:05:33.580Z,15.55
2018-10-03T06:06:13.954Z,15.62
2018-10-03T06:06:54.339Z,15.58
2018-10-03T06:07:35.285Z,15.48
2018-10-03T06:08:15.611Z,15.6
2018-10-03T06:08:56.022Z,15.55
2018-10-03T06:09:36.458Z,15.52
2018-10-03T06:10:16.867Z,15.62
2018-10-03T06:10:57.248Z,15.59
2018-10-03T06:11:37.683Z,15.64
2018-10-03T06:12:18.239Z,15.58
2018-10-03T06:12:58.494Z,15.6
2018-10-03T06:13:38.956Z,15.66
2018-10-03T06:14:19.382Z,15.67
2018-10-03T06:14:59.694Z,15.71
2018-10-03T06:15:40.189Z,15.84
2018-10-03T06:16:20.590Z,15.81
2018-10-03T06:17:01.005Z,15.84
2018-10-03T06:17:41.437Z,15.84
2018-10-03T06:18:21.832Z,15.85
2018-10-03T06:19:02.281Z,15.86
2018-10-03T06:19:42.689Z,15.91
2018-10-03T06:20:23.092Z,15.91
2018-10-03T06:21:03.512Z,16.07
2018-10-03T06:21:43.947Z,16.04
2018-10-03T06:22:24.326Z,16.14
2018-10-03T06:23:04.691Z,16.16
2018-10-03T06:23:45.122Z,16.23
2018-10-03T06:24:25.507Z,16.32
2018-10-03T06:25:05.961Z,16.3
2018-10-03T06:25:46.326Z,16.32
2018-10-03T06:26:26.750Z,16.32
2018-10-03T06:27:07.240Z,16.33
2018-10-03T06:27:47.613Z,16.4
2018-10-03T06:28:28.087Z,16.3
2018-10-03T06:29:08.399Z,16.47
2018-10-03T06:29:48.781Z,16.59
2018-10-03T06:30:29.213Z,16.55
2018-10-03T06:31:09.561Z,16.51
2018-10-03T06:31:49.983Z,16.5
2018-10-03T06:32:30.350Z,16.65
2018-10-03T06:33:10.805Z,16.59
2018-10-03T06:33:51.194Z,16.54
2018-10-03T06:34:31.583Z,16.57
2018-10-03T06:35:12.008Z,16.55
2018-10-03T06:35:52.394Z,16.48
2018-10-03T06:36:32.769Z,16.51
2018-10-03T06:37:13.176Z,16.55
2018-10-03T06:37:53.626Z,16.45
2018-10-03T06:38:33.953Z,16.51
2018-10-03T06:39:14.480Z,16.51
2018-10-03T06:39:54.831Z,16.57
2018-10-03T06:40:35.177Z,16.51
2018-10-03T06:41:15.618Z,16.54
2018-10-03T06:41:56.017Z,16.63
2018-10-03T06:42:36.470Z,16.63
2018-10-03T06:43:16.911Z,16.6
2018-10-03T06:43:57.361Z,16.63
2018-10-03T06:44:37.681Z,16.75
2018-10-03T06:45:18.092Z,16.78
2018-10-03T06:45:58.582Z,16.73
2018-10-03T06:46:39.120Z,16.75
2018-10-03T06:47:19.553Z,16.8
2018-10-03T06:48:00.449Z,16.85
2018-10-03T06:48:40.904Z,16.78
2018-10-03T06:49:21.286Z,16.85
2018-10-03T06:50:01.682Z,16.85
2018-10-03T06:50:42.137Z,16.9
2018-10-03T06:51:22.529Z,16.96
2018-10-03T06:52:02.914Z,16.91
2018-10-03T06:52:43.368Z,16.9
2018-10-03T06:53:23.810Z,16.92
2018-10-03T06:54:04.255Z,16.88
2018-10-03T06:54:44.621Z,16.91
2018-10-03T06:55:25.079Z,16.92
2018-10-03T06:56:05.500Z,16.96
2018-10-03T06:56:45.976Z,17.12
2018-10-03T06:57:26.318Z,17.17
2018-10-03T06:58:06.853Z,17.14
2018-10-03T06:58:47.166Z,17.24
2018-10-03T06:59:27.788Z,17.28
2018-10-03T07:00:08.179Z,17.36
2018-10-03T07:00:48.534Z,17.39
2018-10-03T07:01:28.997Z,17.53
2018-10-03T07:02:09.373Z,17.46
2018-10-03T07:02:49.798Z,17.51
2018-10-03T07:03:30.250Z,17.58
2018-10-03T07:04:10.597Z,17.54
2018-10-03T07:04:51.119Z,17.47
2018-10-03T07:05:31.493Z,17.49
2018-10-03T07:06:11.956Z,17.45
2018-10-03T07:06:52.408Z,17.39
2018-10-03T07:07:32.811Z,17.32
2018-10-03T07:08:13.176Z,17.39
2018-10-03T07:08:53.653Z,17.36
2018-10-03T07:09:34.511Z,17.32
2018-10-03T07:10:15.120Z,17.27
2018-10-03T07:10:55.546Z,17.12
2018-10-03T07:11:35.948Z,17.1
2018-10-03T07:12:16.412Z,17.15
2018-10-03T07:12:56.768Z,17.14
2018-10-03T07:13:37.854Z,17.09
2018-10-03T07:14:18.275Z,17.1
2018-10-03T07:14:58.664Z,17.15
2018-10-03T07:15:39.225Z,17.15
2018-10-03T07:16:19.560Z,17.15
2018-10-03T07:16:59.970Z,17.3
2018-10-03T07:17:40.399Z,17.33
2018-10-03T07:18:20.857Z,17.39
2018-10-03T07:19:01.368Z,17.53
2018-10-03T07:19:42.008Z,17.66
2018-10-03T07:20:22.193Z,17.8
2018-10-03T07:22:09.872Z,18.21
2018-10-03T07:23:05.590Z,18.36
2018-10-03T07:23:45.963Z,18.38
2018-10-03T07:24:29.463Z,18.42
2018-10-03T07:25:09.817Z,18.41
2018-10-03T07:25:50.400Z,18.44
2018-10-03T07:26:30.847Z,18.46
2018-10-03T07:27:11.259Z,18.42
2018-10-03T07:27:52.589Z,18.57
2018-10-03T07:28:33.052Z,18.6
2018-10-03T07:29:16.146Z,18.72
2018-10-03T07:29:56.586Z,18.78
2018-10-03T07:30:36.910Z,18.83
2018-10-03T07:31:17.349Z,18.93
2018-10-03T07:31:57.862Z,18.86
2018-10-03T07:32:38.363Z,19.02
2018-10-03T07:33:18.665Z,19.06
2018-10-03T07:33:59.149Z,18.96
2018-10-03T07:34:39.502Z,18.99
2018-10-03T07:35:20.812Z,19.06
2018-10-03T07:36:01.857Z,18.94
2018-10-03T07:36:41.930Z,19.06
2018-10-03T07:37:22.342Z,19.05
2018-10-03T07:38:02.753Z,18.93
2018-10-03T07:38:43.175Z,18.91
2018-10-03T07:39:23.876Z,18.87
2018-10-03T07:40:04.727Z,18.79
2018-10-03T07:40:45.082Z,18.82
2018-10-03T07:41:25.476Z,18.69
2018-10-03T07:42:05.906Z,18.6
2018-10-03T07:42:46.669Z,18.54
2018-10-03T07:43:27.073Z,18.49
2018-10-03T07:44:07.546Z,18.47
2018-10-03T07:44:47.985Z,18.35
2018-10-03T07:45:28.341Z,18.36
2018-10-03T07:46:09.058Z,18.34
2018-10-03T07:46:49.501Z,18.21
2018-10-03T07:47:29.900Z,18.31
2018-10-03T07:48:10.349Z,18.17
2018-10-03T07:48:50.777Z,18.17
2018-10-03T07:49:31.306Z,18.19
2018-10-03T07:50:11.649Z,18.13
2018-10-03T07:50:52.066Z,18.11
2018-10-03T07:51:32.538Z,18.13
2018-10-03T07:52:12.962Z,18.1
2018-10-03T07:52:53.378Z,18.05
2018-10-03T07:53:33.854Z,17.92
2018-10-03T07:54:14.266Z,18.05
2018-10-03T07:54:54.748Z,18.11
2018-10-03T07:55:35.846Z,17.98
2018-10-03T07:56:16.289Z,17.94
2018-10-03T07:56:56.743Z,17.86
2018-10-03T07:57:37.274Z,17.95
2018-10-03T07:58:17.728Z,17.77
2018-10-03T07:58:58.510Z,17.7
2018-10-03T07:59:39.047Z,17.83
2018-10-03T08:00:19.479Z,17.86
2018-10-03T08:00:59.874Z,17.8
2018-10-03T08:01:40.258Z,17.8
2018-10-03T08:03:35.317Z,17.8
2018-10-03T08:04:18.275Z,17.86
2018-10-03T08:04:58.325Z,17.92
2018-10-03T08:06:52.358Z,17.91
2018-10-03T08:07:34.167Z,18.05
2018-10-03T08:09:22.003Z,18.04
2018-10-03T08:10:02.556Z,17.98
2018-10-03T08:10:42.837Z,18.04
2018-10-03T08:11:23.262Z,17.91
2018-10-03T08:12:03.711Z,17.94
2018-10-03T08:12:44.127Z,17.92
2018-10-03T08:13:24.531Z,17.79
2018-10-03T08:14:05.006Z,17.84
2018-10-03T08:14:45.401Z,17.8
2018-10-03T08:15:25.767Z,17.91
2018-10-03T08:16:06.182Z,17.84
2018-10-03T08:16:46.650Z,17.89
2018-10-03T08:17:27.033Z,17.7
2018-10-03T08:18:07.413Z,17.81
2018-10-03T08:18:47.794Z,17.8
2018-10-03T08:19:28.212Z,17.8
2018-10-03T08:20:08.750Z,17.86
2018-10-03T08:20:49.276Z,17.94
2018-10-03T08:21:29.539Z,17.95
2018-10-03T08:22:10.801Z,17.94
2018-10-03T08:22:51.096Z,17.94
2018-10-03T08:23:31.511Z,17.96
2018-10-03T08:24:11.889Z,17.96
2018-10-03T08:24:52.296Z,18.02
2018-10-03T08:25:32.853Z,18.02
2018-10-03T08:26:13.210Z,18.02
2018-10-03T08:26:54.460Z,18.01
2018-10-03T08:27:34.841Z,17.96
2018-10-03T08:28:15.210Z,17.92
2018-10-03T08:28:55.664Z,18.04
2018-10-03T08:29:36.176Z,18.02
2018-10-03T08:30:16.632Z,18.1
2018-10-03T08:30:57.022Z,18.16
2018-10-03T08:31:37.453Z,18.17
2018-10-03T08:32:17.996Z,18.14
2018-10-03T08:32:58.449Z,18.2
2018-10-03T08:33:38.763Z,18.16
2018-10-03T08:34:19.723Z,18.23
2018-10-03T08:34:59.543Z,18.32
2018-10-03T08:35:39.969Z,18.23
2018-10-03T08:36:20.426Z,18.17
2018-10-03T08:37:00.830Z,18.26
2018-10-03T08:37:41.264Z,18.34
2018-10-03T08:38:21.882Z,18.29
2018-10-03T08:39:02.607Z,18.38
2018-10-03T08:39:43.057Z,18.32
2018-10-03T08:40:23.513Z,18.31
2018-10-03T08:41:03.934Z,18.42
2018-10-03T08:41:44.674Z,18.36
2018-10-03T08:42:24.929Z,18.34
2018-10-03T08:43:05.705Z,18.28
2018-10-03T08:43:46.229Z,18.32
2018-10-03T08:44:26.613Z,18.34
2018-10-03T08:47:10.476Z,18.39
2018-10-03T08:47:52.313Z,18.5
2018-10-03T08:48:32.703Z,18.56
2018-10-03T08:49:14.699Z,18.53
2018-10-03T08:49:55.975Z,18.53
2018-10-03T08:50:36.964Z,18.57
2018-10-03T08:51:19.571Z,18.59
2018-10-03T08:52:00.436Z,18.74
2018-10-03T08:52:40.820Z,18.83
2018-10-03T08:53:21.401Z,18.83
2018-10-03T08:54:01.698Z,18.86
2018-10-03T08:54:42.310Z,18.86
2018-10-03T08:55:24.249Z,18.84
2018-10-03T08:56:05.138Z,18.96
2018-10-03T08:56:45.494Z,18.94
2018-10-03T08:57:25.908Z,18.87
2018-10-03T08:58:07.557Z,18.96
2018-10-03T08:58:48.520Z,18.94
2018-10-03T08:59:28.925Z,19.12
2018-10-03T09:00:09.433Z,19.28
2018-10-03T09:00:50.107Z,19.58
2018-10-03T09:01:30.648Z,19.78
2018-10-03T09:02:11.102Z,19.98
2018-10-03T09:02:52.176Z,20.12
2018-10-03T09:03:33.088Z,20.12
2018-10-03T09:04:14.440Z,20.19
2018-10-03T09:04:55.659Z,20.41
2018-10-03T09:05:36.081Z,20.53
2018-10-03T09:06:16.816Z,20.69
2018-10-03T09:06:57.337Z,20.88
2018-10-03T09:07:38.020Z,21.08
2018-10-03T09:08:19.383Z,21.26
2018-10-03T09:09:00.050Z,21.27
2018-10-03T09:09:41.189Z,21.4
2018-10-03T09:10:22.501Z,21.28
2018-10-03T09:11:03.294Z,21.27
2018-10-03T09:11:44.470Z,21.36
2018-10-03T09:12:25.100Z,21.22
2018-10-03T09:13:07.080Z,21.22
2018-10-03T09:13:48.312Z,21.18
2018-10-03T09:14:29.645Z,21.16
2018-10-03T09:15:10.235Z,21.16
2018-10-03T09:15:51.610Z,21.19
2018-10-03T09:16:32.197Z,21.27
2018-10-03T09:17:12.721Z,21.18
2018-10-03T09:17:53.161Z,21.27
2018-10-03T09:18:33.663Z,21.24
2018-10-03T09:19:14.134Z,21.38
2018-10-03T09:19:54.985Z,21.55
2018-10-03T09:20:35.359Z,21.59
2018-10-03T09:21:15.986Z,21.66
2018-10-03T09:21:56.817Z,21.79
2018-10-03T09:22:38.689Z,22.02
2018-10-03T09:23:18.980Z,22.2
2018-10-03T09:23:59.556Z,22.38
2018-10-03T09:24:40.150Z,22.56
2018-10-03T09:25:26.777Z,22.72
2018-10-03T09:28:30.706Z,22.93
2018-10-03T09:29:11.187Z,22.93
2018-10-03T09:29:51.538Z,23.04
2018-10-03T09:30:31.945Z,23.09
2018-10-03T09:31:12.444Z,23
2018-10-03T09:31:52.813Z,22.91
2018-10-03T09:32:33.395Z,22.81
2018-10-03T09:33:14.822Z,22.85
2018-10-03T09:33:55.503Z,22.84
2018-10-03T09:34:35.996Z,22.97
2018-10-03T09:38:21.590Z,22.86
2018-10-03T09:39:01.657Z,22.81
2018-10-03T09:39:42.191Z,22.97
2018-10-03T09:40:22.863Z,22.72
2018-10-03T09:41:03.660Z,22.67
2018-10-03T09:41:44.107Z,22.39
2018-10-03T09:42:24.958Z,22.38
2018-10-03T09:43:05.418Z,22.2
2018-10-03T09:43:45.968Z,22.26
2018-10-03T09:44:26.710Z,22.11
2018-10-03T09:45:07.371Z,21.96